Aviation Digital Data Service (ADDS)

Output produced by TAFs form (1815 UTC 25 April 2015)
found at http://aviationweather.gov/adds/tafs/
 
KCNY 251741Z 2518/2618 10010KT P6SM SCT020 BKN040 
     FM251900 10010KT P6SM VCSH SCT035 BKN050 
     TEMPO 2519/2523 VRB15G30KT 5SM -TSRA SCT030 BKN040CB 
     FM260300 17010KT P6SM -RA SCT030 BKN050 
     FM260600 19009KT P6SM VCSH SCT030 BKN050